Time;durP1;ratioP1;P1;durP2;ratioP2;P2;SDS_P1;SDS_P2;PMS_P1;PMS_P2;Temp;Humidity;BMP_temperature;BMP_pressure;BME280_temperature;BME280_humidity;BME280_pressure;Samples;Min_cycle;Max_cycle;Signal;HPM_P1;HPM_P2
2023/09/15 00:01:34;;;;;;;4.88;2.05;;;;;;;19.01;85.75;101360.09;7356692;19;20046;-62
2023/09/15 00:04:05;;;;;;;5.55;2.20;;;;;;;19.00;85.86;101361.94;7356031;19;20007;-62
2023/09/15 00:06:35;;;;;;;4.75;2.30;;;;;;;19.02;85.74;101357.25;7351802;19;20090;-62
2023/09/15 00:09:05;;;;;;;5.13;2.53;;;;;;;19.02;85.75;101359.09;7357082;19;20140;-61
2023/09/15 00:11:40;;;;;;;4.95;1.90;;;;;;;18.97;85.33;101348.16;7350653;19;20459;-61
2023/09/15 00:14:09;;;;;;;4.55;2.03;;;;;;;18.91;85.59;101343.59;7360483;19;20015;-63
2023/09/15 00:16:39;;;;;;;6.82;2.70;;;;;;;18.87;85.80;101345.03;7353080;19;20408;-62
2023/09/15 00:19:13;;;;;;;7.05;2.15;;;;;;;18.85;86.09;101341.72;7354377;19;20510;-62
2023/09/15 00:21:41;;;;;;;5.32;2.30;;;;;;;18.82;86.29;101332.28;7351435;19;20019;-63
2023/09/15 00:24:09;;;;;;;4.97;2.35;;;;;;;18.79;86.55;101332.69;7354467;19;20754;-62
2023/09/15 00:26:37;;;;;;;7.03;3.13;;;;;;;18.78;86.56;101336.34;7332523;19;20917;-62
2023/09/15 00:29:05;;;;;;;5.38;2.20;;;;;;;18.75;86.63;101337.53;7356137;19;20068;-61
2023/09/15 00:31:32;;;;;;;5.63;2.40;;;;;;;18.73;86.46;101330.78;7354043;19;20014;-61
2023/09/15 00:33:59;;;;;;;5.07;2.10;;;;;;;18.71;86.90;101336.28;7360171;19;20317;-61
2023/09/15 00:36:27;;;;;;;5.18;2.17;;;;;;;18.69;86.77;101329.53;7354518;19;20121;-62
2023/09/15 00:38:54;;;;;;;6.03;2.60;;;;;;;18.70;87.31;101333.81;7358796;19;20035;-62
2023/09/15 00:41:22;;;;;;;5.22;2.45;;;;;;;18.67;87.04;101327.03;7349892;19;20026;-62
2023/09/15 00:43:49;;;;;;;5.43;2.35;;;;;;;18.68;87.21;101327.88;7355120;19;20010;-62
2023/09/15 00:46:17;;;;;;;5.20;2.22;;;;;;;18.66;87.29;101328.06;7352533;19;20018;-61
2023/09/15 00:48:45;;;;;;;8.32;2.53;;;;;;;18.65;86.87;101322.91;7353463;19;20050;-62
2023/09/15 00:51:14;;;;;;;6.57;2.70;;;;;;;18.67;87.16;101326.22;7334548;19;20017;-62
2023/09/15 00:53:41;;;;;;;4.70;2.33;;;;;;;18.64;86.73;101319.41;7354104;19;20573;-60
2023/09/15 00:56:09;;;;;;;5.95;2.20;;;;;;;18.59;86.92;101316.50;7351339;19;20573;-63
2023/09/15 00:58:40;;;;;;;6.22;2.58;;;;;;;18.55;86.93;101317.91;7356041;19;20018;-61
2023/09/15 01:01:08;;;;;;;6.72;2.67;;;;;;;18.51;87.21;101310.47;7356906;19;20046;-62
2023/09/15 01:03:39;;;;;;;6.68;3.00;;;;;;;18.47;87.50;101317.19;7351369;19;20007;-62
2023/09/15 01:06:08;;;;;;;4.43;2.38;;;;;;;18.44;87.78;101315.72;7352606;19;20018;-62
2023/09/15 01:08:37;;;;;;;4.57;2.80;;;;;;;18.44;88.06;101309.59;7355085;19;20118;-62
2023/09/15 01:11:05;;;;;;;5.68;2.40;;;;;;;18.44;88.42;101304.28;7355880;19;20040;-63
2023/09/15 01:13:34;;;;;;;6.95;3.00;;;;;;;18.43;88.25;101305.28;7354477;19;20018;-61
2023/09/15 01:16:05;;;;;;;5.70;2.50;;;;;;;18.38;88.21;101293.34;7351302;19;20043;-61
2023/09/15 01:18:44;;;;;;;8.30;3.25;;;;;;;18.34;88.28;101296.56;7333810;19;20367;-61
2023/09/15 01:21:23;;;;;;;5.95;2.72;;;;;;;18.34;88.24;101291.25;7354634;19;20067;-62
2023/09/15 01:24:03;;;;;;;6.10;3.40;;;;;;;18.30;88.20;101293.47;7351624;19;20021;-62
2023/09/15 01:26:44;;;;;;;5.75;2.97;;;;;;;18.29;88.68;101291.00;7351715;19;20025;-61
2023/09/15 01:29:28;;;;;;;7.45;3.10;;;;;;;18.27;89.35;101287.72;7359913;19;20463;-61
2023/09/15 01:31:57;;;;;;;7.70;3.40;;;;;;;18.24;89.10;101298.75;7351582;19;20010;-62
2023/09/15 01:34:24;;;;;;;7.25;3.17;;;;;;;18.24;88.72;101299.56;7211765;19;20021;-62
2023/09/15 01:36:53;;;;;;;7.95;3.65;;;;;;;18.21;88.91;101291.97;7352078;19;20006;-61
2023/09/15 01:39:21;;;;;;;7.18;2.80;;;;;;;18.16;89.00;101296.22;7353264;19;20288;-62
2023/09/15 01:41:48;;;;;;;6.13;3.28;;;;;;;18.15;89.18;101298.06;7352990;19;20606;-62
2023/09/15 01:44:15;;;;;;;8.18;3.97;;;;;;;18.14;89.47;101279.59;7368591;19;20376;-61
2023/09/15 01:46:43;;;;;;;7.20;3.38;;;;;;;18.14;89.66;101282.25;7358264;19;20018;-61
2023/09/15 01:49:10;;;;;;;9.98;4.13;;;;;;;18.14;89.44;101282.25;7358257;19;20022;-65
2023/09/15 01:51:37;;;;;;;8.23;4.10;;;;;;;18.09;89.48;101288.16;7354812;19;20445;-61
2023/09/15 01:54:06;;;;;;;7.25;3.97;;;;;;;18.09;89.44;101285.50;7361848;19;20051;-60
2023/09/15 01:56:33;;;;;;;8.63;4.40;;;;;;;18.07;89.40;101287.53;7360361;19;20582;-60
2023/09/15 01:59:00;;;;;;;9.73;4.32;;;;;;;18.08;89.34;101280.38;7364990;19;21212;-60
2023/09/15 02:01:27;;;;;;;9.10;4.68;;;;;;;18.08;89.75;101267.84;7355681;19;20021;-61
2023/09/15 02:03:55;;;;;;;9.57;5.20;;;;;;;18.08;89.51;101280.38;7363803;19;20010;-61
2023/09/15 02:06:22;;;;;;;7.55;4.38;;;;;;;18.03;89.72;101280.91;7357902;19;20019;-61
2023/09/15 02:08:49;;;;;;;8.88;4.25;;;;;;;18.00;89.78;101278.66;7359420;19;20037;-62
2023/09/15 02:11:18;;;;;;;10.73;4.85;;;;;;;17.98;89.83;101270.00;7362092;19;20027;-61
2023/09/15 02:13:46;;;;;;;8.95;4.15;;;;;;;17.97;89.97;101271.06;7360090;19;20018;-61
2023/09/15 02:16:14;;;;;;;9.02;4.50;;;;;;;17.92;90.19;101276.94;7357869;19;20026;-65
2023/09/15 02:18:41;;;;;;;8.20;4.40;;;;;;;17.92;91.69;101278.78;7363418;19;20022;-63
2023/09/15 02:21:08;;;;;;;7.85;4.90;;;;;;;17.88;91.02;101278.31;7356949;19;20022;-62
2023/09/15 02:23:35;;;;;;;6.85;4.07;;;;;;;17.86;90.65;101276.88;7361926;19;20017;-62
2023/09/15 02:26:04;;;;;;;8.57;4.50;;;;;;;17.85;90.76;101276.03;7358235;19;20033;-62
2023/09/15 02:28:32;;;;;;;7.50;4.60;;;;;;;17.84;90.86;101278.88;7365370;19;20042;-62
2023/09/15 02:31:03;;;;;;;7.65;4.10;;;;;;;17.83;90.97;101275.41;7359569;19;20018;-63
2023/09/15 02:33:31;;;;;;;7.20;4.33;;;;;;;17.83;91.45;101277.22;7359791;19;20209;-62
2023/09/15 02:35:58;;;;;;;8.38;4.28;;;;;;;17.84;91.77;101276.22;7359720;19;20038;-62
2023/09/15 02:38:26;;;;;;;6.43;3.95;;;;;;;17.85;91.59;101278.72;7358141;19;20021;-66
2023/09/15 02:40:53;;;;;;;7.32;3.50;;;;;;;17.85;91.57;101276.03;7359559;19;20010;-62
2023/09/15 02:43:21;;;;;;;11.15;3.95;;;;;;;17.88;91.26;101274.81;7359723;19;20007;-62
2023/09/15 02:45:48;;;;;;;6.53;3.67;;;;;;;17.87;90.94;101268.69;7354505;19;20483;-62
2023/09/15 02:48:15;;;;;;;8.20;4.53;;;;;;;17.87;91.34;101270.53;7356378;19;20479;-62
2023/09/15 02:50:43;;;;;;;8.35;3.90;;;;;;;17.90;91.41;101273.63;7356193;19;20014;-62
2023/09/15 02:53:11;;;;;;;7.47;4.05;;;;;;;17.91;91.23;101271.81;7354587;19;20010;-62
2023/09/15 02:55:38;;;;;;;10.25;4.63;;;;;;;17.89;90.48;101269.31;7358302;19;20050;-62
2023/09/15 02:58:06;;;;;;;7.40;4.38;;;;;;;17.90;90.30;101264.81;7360203;19;20036;-62
2023/09/15 03:00:33;;;;;;;8.30;4.32;;;;;;;17.88;90.29;101266.84;7342497;19;20014;-60
2023/09/15 03:03:00;;;;;;;7.85;4.35;;;;;;;17.83;90.73;101261.25;7353121;19;20017;-62
2023/09/15 03:05:28;;;;;;;7.25;4.00;;;;;;;17.81;91.13;101260.63;7357795;19;20042;-61
2023/09/15 03:07:55;;;;;;;8.48;4.63;;;;;;;17.82;91.08;101256.97;7359521;19;20018;-62
2023/09/15 03:10:22;;;;;;;9.05;4.90;;;;;;;17.80;90.84;101254.50;7357500;19;20624;-62
2023/09/15 03:12:51;;;;;;;8.18;4.93;;;;;;;17.80;90.84;101256.31;7359299;19;20081;-62
2023/09/15 03:15:18;;;;;;;9.90;4.85;;;;;;;17.76;91.03;101247.91;7361398;19;20010;-62
2023/09/15 03:17:46;;;;;;;11.32;5.38;;;;;;;17.75;91.19;101242.75;7354941;19;20467;-62
2023/09/15 03:20:15;;;;;;;11.00;5.30;;;;;;;17.71;91.40;101252.97;7359579;19;20014;-62
2023/09/15 03:22:43;;;;;;;9.75;5.95;;;;;;;17.69;91.76;101240.84;7354007;19;20026;-62
2023/09/15 03:25:11;;;;;;;12.50;6.10;;;;;;;17.68;91.92;101240.00;7359216;19;20038;-60
2023/09/15 03:27:38;;;;;;;11.82;5.97;;;;;;;17.64;91.73;101243.25;7355806;19;20114;-61
2023/09/15 03:30:07;;;;;;;10.63;5.80;;;;;;;17.62;91.93;101242.63;7360349;19;20967;-61
2023/09/15 03:32:35;;;;;;;13.52;6.97;;;;;;;17.59;91.91;101238.50;7334914;19;20021;-61
2023/09/15 03:35:05;;;;;;;12.98;6.65;;;;;;;17.59;91.88;101232.31;7351147;19;20014;-60
2023/09/15 03:37:33;;;;;;;12.27;6.57;;;;;;;17.57;92.04;101234.34;7353207;19;20034;-60
2023/09/15 03:40:00;;;;;;;15.32;8.93;;;;;;;17.55;92.87;101231.88;7359081;19;20038;-62
2023/09/15 03:42:27;;;;;;;13.85;7.97;;;;;;;17.51;93.52;101220.78;7355551;19;20172;-62
2023/09/15 03:44:55;;;;;;;12.13;7.45;;;;;;;17.53;93.20;101224.06;7359141;19;20782;-63
2023/09/15 03:47:22;;;;;;;16.05;7.75;;;;;;;17.53;92.95;101215.25;7357650;19;20018;-61
2023/09/15 03:49:49;;;;;;;14.35;7.68;;;;;;;17.55;92.89;101205.25;7355106;19;20042;-62
2023/09/15 03:52:16;;;;;;;16.38;8.23;;;;;;;17.55;92.70;101199.94;7352520;19;20022;-62
2023/09/15 03:54:44;;;;;;;13.63;8.10;;;;;;;17.54;92.75;101201.78;7354649;19;20094;-62
2023/09/15 03:57:11;;;;;;;15.45;10.00;;;;;;;17.54;92.94;101192.97;7333949;19;20018;-62
2023/09/15 03:59:38;;;;;;;15.70;8.68;;;;;;;17.53;93.70;101202.78;7356928;19;20046;-62
2023/09/15 04:02:05;;;;;;;15.73;8.00;;;;;;;17.52;93.29;101201.13;7357112;19;20754;-62
2023/09/15 04:04:33;;;;;;;16.80;8.65;;;;;;;17.51;93.28;101198.66;7354755;19;20014;-63
2023/09/15 04:07:00;;;;;;;15.35;8.77;;;;;;;17.48;93.07;101199.84;7351087;19;20021;-61
2023/09/15 04:09:27;;;;;;;18.25;9.57;;;;;;;17.49;93.06;101190.88;7355836;19;20014;-61
2023/09/15 04:11:54;;;;;;;14.80;8.63;;;;;;;17.48;93.51;101202.53;7354369;19;20010;-61
2023/09/15 04:14:22;;;;;;;17.10;8.30;;;;;;;17.48;93.66;101193.72;7354066;19;20038;-61
2023/09/15 04:16:49;;;;;;;16.27;8.90;;;;;;;17.45;93.63;101197.59;7353613;19;20121;-61
2023/09/15 04:19:16;;;;;;;17.85;9.00;;;;;;;17.48;93.79;101197.19;7358102;19;20014;-61
2023/09/15 04:21:44;;;;;;;18.25;9.60;;;;;;;17.47;93.92;101194.75;7353440;19;20085;-61
2023/09/15 04:24:11;;;;;;;18.10;9.60;;;;;;;17.44;93.95;101193.28;7337514;19;20486;-61
2023/09/15 04:26:40;;;;;;;17.30;9.23;;;;;;;17.43;93.92;101196.09;7342321;19;20455;-62
2023/09/15 04:29:07;;;;;;;16.55;9.75;;;;;;;17.45;94.17;101194.94;7357596;19;20373;-62
2023/09/15 04:31:37;;;;;;;18.85;10.30;;;;;;;17.46;94.03;101191.25;7355261;19;20011;-61
2023/09/15 04:34:05;;;;;;;20.80;11.27;;;;;;;17.48;94.92;101185.72;7354173;19;20114;-61
2023/09/15 04:36:33;;;;;;;16.70;9.75;;;;;;;17.51;95.56;101186.19;7353366;19;20926;-62
2023/09/15 04:39:04;;;;;;;18.65;11.10;;;;;;;17.51;94.25;101188.03;7357704;19;20029;-62
2023/09/15 04:41:32;;;;;;;23.42;10.98;;;;;;;17.49;94.14;101190.88;7354474;19;20022;-62
2023/09/15 04:43:59;;;;;;;18.92;10.45;;;;;;;17.46;94.21;101188.59;7355256;19;20470;-62
2023/09/15 04:46:26;;;;;;;20.15;10.43;;;;;;;17.47;94.18;101189.44;7354697;19;20037;-62
2023/09/15 04:48:54;;;;;;;18.58;11.05;;;;;;;17.45;94.29;101188.78;7348681;19;20055;-61
2023/09/15 04:51:21;;;;;;;19.98;11.23;;;;;;;17.43;94.38;101177.47;7339159;19;20022;-62
2023/09/15 04:53:48;;;;;;;20.27;11.13;;;;;;;17.44;94.91;101184.47;7355670;19;20018;-62
2023/09/15 04:56:16;;;;;;;23.10;11.75;;;;;;;17.47;95.09;101187.56;7353343;19;20014;-62
2023/09/15 04:58:45;;;;;;;22.92;11.98;;;;;;;17.45;94.87;101181.63;7354376;19;20014;-61
2023/09/15 05:01:16;;;;;;;21.52;11.55;;;;;;;17.45;94.62;101188.78;7355184;19;20062;-61
2023/09/15 05:03:44;;;;;;;22.17;11.88;;;;;;;17.44;94.89;101185.28;7354125;19;20570;-61
2023/09/15 05:06:11;;;;;;;22.20;10.93;;;;;;;17.41;94.86;101188.34;7350490;19;20029;-62
2023/09/15 05:08:38;;;;;;;17.85;10.30;;;;;;;17.42;94.61;101179.31;7354928;19;20364;-62
2023/09/15 05:11:06;;;;;;;18.95;10.45;;;;;;;17.45;95.52;101183.47;7353859;19;20022;-61
2023/09/15 05:13:33;;;;;;;19.30;10.63;;;;;;;17.43;95.53;101177.47;7351023;19;20027;-60
2023/09/15 05:16:02;;;;;;;17.63;9.38;;;;;;;17.44;95.38;101181.81;7353939;19;20580;-64
2023/09/15 05:18:30;;;;;;;19.00;10.73;;;;;;;17.45;94.69;101184.28;7342125;19;20056;-63
2023/09/15 05:20:57;;;;;;;20.05;10.68;;;;;;;17.42;94.81;101184.63;7352139;19;20089;-61
2023/09/15 05:23:25;;;;;;;21.27;10.73;;;;;;;17.40;94.94;101183.19;7362851;19;20048;-62
2023/09/15 05:25:53;;;;;;;23.20;11.05;;;;;;;17.38;94.81;101183.38;7357822;19;20028;-62
2023/09/15 05:28:20;;;;;;;22.20;12.90;;;;;;;17.40;95.50;101173.38;7361250;19;20019;-61
2023/09/15 05:30:48;;;;;;;23.98;12.10;;;;;;;17.43;95.75;101178.31;7360535;19;20022;-62
2023/09/15 05:33:16;;;;;;;25.02;12.52;;;;;;;17.44;95.58;101179.13;7358688;19;20025;-62
2023/09/15 05:35:43;;;;;;;25.90;13.35;;;;;;;17.47;94.68;101184.91;7356743;19;20029;-62
2023/09/15 05:38:10;;;;;;;23.88;13.15;;;;;;;17.45;94.58;101178.97;7360274;19;20031;-63
2023/09/15 05:40:38;;;;;;;24.42;13.55;;;;;;;17.43;94.64;101186.28;7359976;19;20047;-62
2023/09/15 05:43:06;;;;;;;27.52;14.63;;;;;;;17.41;94.65;101176.88;7360371;19;20486;-62
2023/09/15 05:45:35;;;;;;;29.20;15.85;;;;;;;17.39;95.60;101178.88;7345479;19;20064;-61
2023/09/15 05:48:03;;;;;;;27.85;14.57;;;;;;;17.42;96.38;101173.19;7359024;19;20017;-62
2023/09/15 05:50:30;;;;;;;27.40;15.35;;;;;;;17.43;95.79;101170.31;7355266;19;20421;-63
2023/09/15 05:52:58;;;;;;;28.75;15.15;;;;;;;17.41;95.19;101179.53;7354699;19;20396;-62
2023/09/15 05:55:25;;;;;;;25.65;14.43;;;;;;;17.39;95.26;101179.72;7362462;19;20022;-62
2023/09/15 05:57:52;;;;;;;26.65;14.95;;;;;;;17.42;95.37;101183.84;7357780;19;20110;-61
2023/09/15 06:00:20;;;;;;;26.27;14.93;;;;;;;17.40;95.51;101181.38;7360459;19;20006;-62
2023/09/15 06:02:48;;;;;;;28.27;15.68;;;;;;;17.40;95.56;101176.03;7359577;19;20114;-61
2023/09/15 06:05:17;;;;;;;27.55;15.65;;;;;;;17.41;95.09;101169.72;7356317;19;20018;-63
2023/09/15 06:07:45;;;;;;;27.02;14.13;;;;;;;17.41;95.53;101163.56;7354903;19;20103;-67
2023/09/15 06:10:12;;;;;;;25.45;14.52;;;;;;;17.44;95.82;101163.19;7359573;19;20038;-63
2023/09/15 06:12:39;;;;;;;28.73;14.98;;;;;;;17.45;95.59;101167.50;7336044;19;20827;-63
2023/09/15 06:15:07;;;;;;;24.90;13.93;;;;;;;17.51;95.33;101167.56;7364021;19;20490;-65
2023/09/15 06:17:34;;;;;;;25.25;14.07;;;;;;;17.50;95.22;101173.91;7358451;19;20018;-63
2023/09/15 06:20:04;;;;;;;25.33;14.05;;;;;;;17.51;95.04;101164.09;7358783;19;20026;-63
2023/09/15 06:22:32;;;;;;;27.35;14.18;;;;;;;17.52;95.39;101165.72;7359580;19;20010;-62
2023/09/15 06:25:00;;;;;;;24.50;14.05;;;;;;;17.56;95.69;101169.66;7361416;19;21103;-64
2023/09/15 06:27:27;;;;;;;23.30;13.38;;;;;;;17.59;95.14;101168.44;7353759;19;20017;-62
2023/09/15 06:29:56;;;;;;;22.63;13.02;;;;;;;17.59;94.67;101171.09;7353360;19;20011;-61
2023/09/15 06:32:23;;;;;;;26.20;13.55;;;;;;;17.59;94.47;101174.63;7357557;19;20086;-61
2023/09/15 06:34:50;;;;;;;22.67;13.10;;;;;;;17.60;94.32;101172.78;7359460;19;20383;-60
2023/09/15 06:37:18;;;;;;;23.25;11.02;;;;;;;17.64;94.67;101176.72;7352114;19;20014;-61
2023/09/15 06:39:45;;;;;;;21.45;10.20;;;;;;;17.67;94.23;101171.84;7335505;19;20010;-61
2023/09/15 06:42:13;;;;;;;19.05;10.50;;;;;;;17.69;93.98;101163.66;7355668;19;20102;-62
2023/09/15 06:44:40;;;;;;;18.55;10.23;;;;;;;17.76;93.67;101165.38;7362527;19;20014;-62
2023/09/15 06:47:07;;;;;;;22.98;10.65;;;;;;;17.80;93.12;101163.13;7355322;19;21017;-63
2023/09/15 06:49:35;;;;;;;18.08;10.25;;;;;;;17.83;92.83;101163.56;7356827;19;20512;-62
2023/09/15 06:52:03;;;;;;;20.15;10.70;;;;;;;17.86;92.87;101163.22;7353916;19;20018;-61
2023/09/15 06:54:31;;;;;;;19.20;10.75;;;;;;;17.88;92.60;101166.47;7358683;19;20015;-62
2023/09/15 06:56:58;;;;;;;21.17;10.55;;;;;;;17.92;92.22;101162.44;7359867;19;20014;-62
2023/09/15 06:59:25;;;;;;;18.30;10.05;;;;;;;17.98;92.08;101162.69;7358354;19;20451;-63
2023/09/15 07:01:52;;;;;;;23.23;10.95;;;;;;;18.02;92.06;101161.28;7359034;19;20018;-62
2023/09/15 07:04:20;;;;;;;18.73;10.32;;;;;;;18.05;92.06;101164.38;7355322;19;20022;-62
2023/09/15 07:06:47;;;;;;;21.65;11.88;;;;;;;18.09;91.69;101167.47;7326756;19;20487;-63
2023/09/15 07:09:14;;;;;;;24.00;12.48;;;;;;;18.15;91.35;101166.69;7357341;19;20062;-63
2023/09/15 07:11:42;;;;;;;22.23;11.23;;;;;;;18.18;91.45;101158.34;7358045;19;20340;-62
2023/09/15 07:14:09;;;;;;;18.63;10.63;;;;;;;18.19;91.49;101163.44;7359982;19;20025;-62
2023/09/15 07:16:37;;;;;;;21.33;11.38;;;;;;;18.25;91.46;101164.50;7354772;19;20010;-63
2023/09/15 07:19:04;;;;;;;19.13;10.35;;;;;;;18.27;91.60;101168.66;7357425;19;20182;-62
2023/09/15 07:21:40;;;;;;;19.35;10.55;;;;;;;18.32;91.21;101179.53;7351716;19;20049;-62
2023/09/15 07:24:08;;;;;;;20.27;11.80;;;;;;;18.34;91.06;101172.16;7356785;19;20131;-62
2023/09/15 07:26:36;;;;;;;22.25;11.68;;;;;;;18.36;90.93;101166.66;7353158;19;20519;-62
2023/09/15 07:29:04;;;;;;;21.23;10.77;;;;;;;18.41;90.75;101169.53;7356185;19;20025;-62
2023/09/15 07:31:34;;;;;;;20.33;11.00;;;;;;;18.43;90.87;101166.69;7354946;19;20017;-62
2023/09/15 07:34:03;;;;;;;17.25;9.05;;;;;;;18.44;89.79;101168.34;7358885;19;20020;-61
2023/09/15 07:36:30;;;;;;;15.13;8.00;;;;;;;18.46;88.16;101171.63;7352196;19;20388;-62
2023/09/15 07:38:57;;;;;;;17.88;7.50;;;;;;;18.49;88.03;101166.72;7356832;19;20060;-61
2023/09/15 07:41:25;;;;;;;13.85;5.70;;;;;;;18.53;87.50;101160.00;7351573;19;20015;-62
2023/09/15 07:43:56;;;;;;;10.70;5.15;;;;;;;18.58;86.70;101168.25;7358274;19;20015;-63
2023/09/15 07:46:24;;;;;;;15.30;6.75;;;;;;;18.63;85.94;101157.00;7355661;19;20094;-61
2023/09/15 07:48:51;;;;;;;12.88;5.43;;;;;;;18.68;86.07;101159.91;7359167;19;20113;-62
2023/09/15 07:51:19;;;;;;;11.75;6.35;;;;;;;18.73;86.44;101152.97;7352255;19;20102;-62
2023/09/15 07:53:47;;;;;;;14.95;7.28;;;;;;;18.80;86.04;101158.28;7349999;19;20022;-62
2023/09/15 07:56:15;;;;;;;18.38;8.85;;;;;;;18.85;86.37;101153.19;7357509;19;20018;-61
2023/09/15 07:58:42;;;;;;;16.30;8.65;;;;;;;18.92;86.60;101153.22;7359711;19;20025;-63
2023/09/15 08:01:11;;;;;;;18.23;9.00;;;;;;;18.95;86.57;101161.66;7345507;19;20064;-62
2023/09/15 08:03:39;;;;;;;19.15;10.73;;;;;;;19.00;86.68;101156.53;7347044;19;20018;-62
2023/09/15 08:06:08;;;;;;;21.65;10.80;;;;;;;19.05;86.15;101154.09;7351971;19;20021;-61
2023/09/15 08:08:35;;;;;;;24.45;10.85;;;;;;;19.13;86.25;101158.44;7354252;19;20106;-62
2023/09/15 08:11:03;;;;;;;20.50;11.00;;;;;;;19.17;85.75;101160.50;7354481;19;20014;-63
2023/09/15 08:13:30;;;;;;;20.65;10.55;;;;;;;19.24;85.82;101160.53;7352461;19;20048;-61
2023/09/15 08:15:58;;;;;;;20.73;10.68;;;;;;;19.28;85.11;101151.09;7356151;19;20295;-62
2023/09/15 08:18:26;;;;;;;21.70;11.70;;;;;;;19.31;85.15;101155.19;7352824;19;20035;-62
2023/09/15 08:20:54;;;;;;;25.85;11.35;;;;;;;19.32;85.65;101160.34;7354334;19;20692;-62
2023/09/15 08:23:21;;;;;;;19.48;11.25;;;;;;;19.35;84.98;101151.91;7354151;19;20014;-62
2023/09/15 08:25:49;;;;;;;20.50;11.20;;;;;;;19.40;84.56;101146.00;7354224;19;20695;-63
2023/09/15 08:28:17;;;;;;;19.05;11.30;;;;;;;19.50;83.37;101149.13;7342691;19;20134;-62
2023/09/15 08:30:46;;;;;;;23.60;12.35;;;;;;;19.49;83.53;101148.28;7358719;19;20014;-63
2023/09/15 08:33:14;;;;;;;21.02;11.50;;;;;;;19.49;83.89;101152.81;7354185;19;20011;-63
2023/09/15 08:35:43;;;;;;;24.60;12.63;;;;;;;19.51;84.05;101148.91;7353057;19;20105;-62
2023/09/15 08:38:12;;;;;;;19.65;11.23;;;;;;;19.55;83.65;101149.34;7351201;19;20014;-63
2023/09/15 08:40:51;;;;;;;19.73;11.52;;;;;;;19.61;83.15;101148.50;7355104;19;20030;-63
2023/09/15 08:43:19;;;;;;;30.15;11.93;;;;;;;19.64;82.77;101148.09;7355756;19;20035;-62
2023/09/15 08:45:48;;;;;;;20.67;11.80;;;;;;;19.64;83.05;101145.44;7356728;19;20035;-62
2023/09/15 08:48:24;;;;;;;18.23;10.30;;;;;;;19.68;84.04;101154.69;7352690;19;20689;-62
2023/09/15 08:50:52;;;;;;;21.50;11.05;;;;;;;19.74;83.07;101150.38;7352028;19;20289;-62
2023/09/15 08:53:20;;;;;;;19.45;10.40;;;;;;;19.78;83.05;101144.41;7347996;19;20022;-62
2023/09/15 08:55:48;;;;;;;15.63;10.23;;;;;;;19.84;82.53;101146.25;7366371;19;20022;-62
2023/09/15 08:58:15;;;;;;;22.08;11.00;;;;;;;19.88;82.80;101146.66;7369110;19;21855;-62
2023/09/15 09:00:44;;;;;;;22.35;10.68;;;;;;;19.90;82.04;101148.13;7367461;19;20179;-62
2023/09/15 09:03:13;;;;;;;20.10;10.32;;;;;;;19.93;82.10;101139.69;7363828;19;20023;-61
2023/09/15 09:05:46;;;;;;;21.45;11.32;;;;;;;19.96;82.01;101141.94;7364816;19;20085;-61
2023/09/15 09:08:18;;;;;;;19.40;9.90;;;;;;;20.00;82.16;101135.16;7363440;19;20015;-62
2023/09/15 09:10:47;;;;;;;20.10;9.90;;;;;;;20.04;81.89;101132.91;7367862;19;20800;-63
2023/09/15 09:13:15;;;;;;;17.92;9.45;;;;;;;20.08;81.89;101137.63;7369348;19;20042;-61
2023/09/15 09:15:56;;;;;;;16.08;9.00;;;;;;;20.13;81.58;101133.50;7368464;19;20020;-62
2023/09/15 09:18:24;;;;;;;18.77;9.07;;;;;;;20.19;80.96;101130.00;7367471;19;20011;-62
2023/09/15 09:20:52;;;;;;;14.23;8.60;;;;;;;20.25;81.12;101131.84;7346351;19;20029;-63
2023/09/15 09:23:20;;;;;;;21.10;10.13;;;;;;;20.32;80.50;101133.47;7369018;19;20011;-63
2023/09/15 09:25:48;;;;;;;16.35;8.93;;;;;;;20.40;79.08;101141.28;7366523;19;20073;-62
2023/09/15 09:28:16;;;;;;;16.27;8.40;;;;;;;20.46;78.81;101136.97;7367124;19;20015;-62
2023/09/15 09:30:44;;;;;;;16.98;8.70;;;;;;;20.48;78.24;101135.72;7366628;19;20019;-62
2023/09/15 09:33:12;;;;;;;14.30;9.20;;;;;;;20.51;78.27;101134.47;7374669;19;20006;-62
2023/09/15 09:35:39;;;;;;;18.65;8.90;;;;;;;20.57;78.38;101136.28;7364720;19;20031;-63
2023/09/15 09:38:07;;;;;;;16.23;8.50;;;;;;;20.60;78.28;101127.88;7364367;19;20018;-62
2023/09/15 09:40:34;;;;;;;14.18;7.70;;;;;;;20.66;77.50;101127.03;7368401;19;20429;-62
2023/09/15 09:43:03;;;;;;;13.20;7.43;;;;;;;20.73;76.77;101124.31;7367559;19;20015;-62
2023/09/15 09:45:31;;;;;;;22.35;7.90;;;;;;;20.77;76.02;101120.19;7348497;19;20885;-61
2023/09/15 09:48:00;;;;;;;19.63;6.93;;;;;;;20.76;75.05;101123.91;7365085;19;20382;-62
2023/09/15 09:50:28;;;;;;;15.35;6.25;;;;;;;20.76;75.01;101121.22;7364244;19;20392;-61
2023/09/15 09:52:56;;;;;;;11.38;5.93;;;;;;;20.78;74.90;101114.63;7366672;19;20038;-62
2023/09/15 09:55:25;;;;;;;18.15;7.57;;;;;;;20.83;74.01;101113.97;7363935;19;20006;-61
2023/09/15 09:57:52;;;;;;;13.63;6.75;;;;;;;20.85;73.75;101119.94;7360902;19;20011;-62
2023/09/15 10:00:22;;;;;;;11.25;5.60;;;;;;;20.88;74.11;101106.13;7365707;19;20612;-62
2023/09/15 10:02:49;;;;;;;28.73;7.35;;;;;;;20.93;74.04;101103.63;7343343;19;20017;-62
2023/09/15 10:05:17;;;;;;;61.47;11.13;;;;;;;20.97;73.12;101104.88;7356713;19;20057;-63
2023/09/15 10:07:46;;;;;;;111.80;18.80;;;;;;;21.03;73.69;101098.63;7355649;19;20034;-62
2023/09/15 10:10:15;;;;;;;55.38;12.60;;;;;;;21.10;74.24;101103.97;7354689;19;20025;-63
2023/09/15 10:12:42;;;;;;;15.77;6.60;;;;;;;21.14;72.92;101102.53;7336908;19;20793;-61
2023/09/15 10:15:11;;;;;;;20.55;5.85;;;;;;;21.20;72.71;101094.47;7363183;19;20797;-62
2023/09/15 10:17:38;;;;;;;10.60;5.15;;;;;;;21.24;72.55;101103.69;7352703;19;20014;-62
2023/09/15 10:20:08;;;;;;;13.18;5.47;;;;;;;21.30;72.39;101094.81;7360892;19;20641;-63
2023/09/15 10:22:37;;;;;;;9.40;4.43;;;;;;;21.38;72.76;101092.91;7356539;19;20022;-63
2023/09/15 10:25:05;;;;;;;8.98;4.40;;;;;;;21.42;71.69;101091.44;7359249;19;20010;-61
2023/09/15 10:27:33;;;;;;;13.57;4.85;;;;;;;21.46;71.35;101085.41;7357690;19;20024;-61
2023/09/15 10:30:04;;;;;;;10.55;4.82;;;;;;;21.53;70.95;101083.53;7357005;19;20525;-62
2023/09/15 10:32:38;;;;;;;8.50;4.47;;;;;;;21.58;71.16;101090.91;7359586;19;20515;-62
2023/09/15 10:35:08;;;;;;;10.85;4.50;;;;;;;21.63;70.99;101083.03;7355556;19;20113;-62
2023/09/15 10:37:44;;;;;;;11.00;4.90;;;;;;;21.69;71.17;101076.78;7340157;19;20285;-63
2023/09/15 10:40:13;;;;;;;9.02;3.70;;;;;;;21.73;70.78;101068.09;7340874;19;20094;-63
2023/09/15 10:42:50;;;;;;;10.02;4.63;;;;;;;21.82;70.58;101063.28;7345803;19;20025;-62
2023/09/15 10:45:18;;;;;;;6.80;3.70;;;;;;;21.87;69.85;101059.94;7358791;19;20021;-61
2023/09/15 10:47:56;;;;;;;14.48;4.80;;;;;;;21.97;69.52;101062.94;7341826;19;20018;-60
2023/09/15 10:50:34;;;;;;;10.07;4.43;;;;;;;21.99;68.65;101056.31;7363588;19;20648;-61
2023/09/15 10:53:12;;;;;;;9.23;3.65;;;;;;;22.00;69.20;101060.63;7360394;19;20502;-62
2023/09/15 10:55:40;;;;;;;9.32;3.70;;;;;;;22.03;69.28;101049.47;7355312;19;20094;-62
2023/09/15 10:58:09;;;;;;;12.65;4.00;;;;;;;22.05;69.23;101049.25;7352780;19;20021;-62
2023/09/15 11:00:38;;;;;;;13.85;4.28;;;;;;;22.10;69.38;101052.91;7355719;19;20098;-62
2023/09/15 11:03:06;;;;;;;8.50;3.47;;;;;;;22.14;69.82;101040.72;7356721;19;20694;-63
2023/09/15 11:05:35;;;;;;;10.52;3.30;;;;;;;22.15;68.02;101036.13;7357841;19;20487;-60
2023/09/15 11:08:04;;;;;;;13.48;3.67;;;;;;;22.20;67.86;101032.81;7358437;19;20014;-62
2023/09/15 11:10:32;;;;;;;7.45;2.72;;;;;;;22.23;67.89;101038.53;7352469;19;20022;-62
2023/09/15 11:13:01;;;;;;;8.02;3.42;;;;;;;22.23;68.15;101035.84;7334137;19;20097;-63
2023/09/15 11:15:29;;;;;;;7.10;2.42;;;;;;;22.26;67.56;101029.22;7332315;19;20019;-62
2023/09/15 11:17:57;;;;;;;4.90;2.65;;;;;;;22.29;67.42;101029.59;7337257;19;20018;-62
2023/09/15 11:20:25;;;;;;;6.68;2.40;;;;;;;22.35;66.28;101023.31;7336063;19;20695;-62
2023/09/15 11:22:55;;;;;;;7.22;2.92;;;;;;;22.39;66.43;101027.22;7340242;19;20015;-62